Oscar Dyson — WTEP — position and weather

sailwx.info

Track history (hours):
 
Tides and Currents Weather Stations Pressure Air Temp Water Temp Dewpoint Dewpoint Depression Visibility Wind Speed Wind Dir Waves Ship Positions

Oceanographic research ship Oscar Dyson (USA)

Ship's website: http://www.moc.noaa.gov/od/

Detailed information on ship capabilities available from University of Delaware's Ocean Information Center and ARCUS's ALIAS (Arctic Logistics Information and Support) project.

Last reported at 2015-Mar-29 10:00 UTC. Time now 2015-Mar-29 10:42 UTC.
Position N 57°12' W 154°42'.

Type: Ship. MMSI: 369959000.

Wind from 010 at 22 knots

Barometer 986.7 mb
Air temperature 5.4 ° C
Dewpoint 1.8 ° C
Water temperature 4.6 ° C

Date/timePositionNaut miles runAvg speedWind from/ knotsBaromVisibWave heightAir tempDewpointWater temp
2015-Mar-29 10:00N 57°12' W 154°42'6 6.0 010 / 22986.7 5.4 1.8 4.6
2015-Mar-29 09:00N 57°18' W 154°42'6 3.0 030 / 22985.7 5.7 2.1 4.6
2015-Mar-29 07:01N 57°12' W 154°42'0 0.0 020 / 19985.8 6.5 4.6
2015-Mar-29 06:01N 57°12' W 154°42'3195.0 010 / 18985.6 6.7 4.6
2015-Mar-29 06:00N 57°12' W 154°36'3 3.3 020 / 19985.7 5.4 0.5 6.7 1.9-4.6
2015-Mar-29 05:00N 57°12' W 154°42'0 0.0 010 / 23985.5 6.5 2.6 4.6
2015-Mar-29 04:00N 57°12' W 154°42'0 0.0 360 / 22985.2 6.8 4.7
2015-Mar-29 03:00N 57°12' W 154°42'0 0.0 360 / 21985.0 7.5 3.2 4.8
2015-Mar-29 02:00N 57°12' W 154°42'0 0.0 030 / 17985.1 9.2 4.8
2015-Mar-29 01:00N 57°12' W 154°42'0 0.0 020 / 18984.9 9.4 0.8 4.8
2015-Mar-29 00:00N 57°12' W 154°42'0 0.0 010 / 19985.010.8 0.5 8.5 3.2 4.7
2015-Mar-28 23:00N 57°12' W 154°42'0 0.0 010 / 18985.1 8.8 2.9 4.7
2015-Mar-28 22:00N 57°12' W 154°42'6 6.0 040 / 13985.6 10.0 4.6
2015-Mar-28 21:00N 57°18' W 154°42'6360.0 040 / 12985.6 9.3 1.4 4.7
2015-Mar-28 20:59N 57°12' W 154°42'0 0.0 050 / 14985.8 9.5 4.8
2015-Mar-28 20:00N 57°12' W 154°42'6 2.0 060 / 19985.7 8.9 1.9 4.6
2015-Mar-28 17:00N 57°18' W 154°42'6360.0 020 / 13985.4 6.4 1.8 4.4
2015-Mar-28 16:59N 57°12' W 154°42'0 0.0 010 / 14985.6 6.6 4.4
2015-Mar-28 16:00N 57°12' W 154°42'0 0.0 030 / 14985.9 6.6 1.0 4.4
2015-Mar-28 14:00N 57°12' W 154°42'0 0.0 040 / 14985.9 6.8-0.0 4.4
2015-Mar-28 13:00N 57°12' W 154°42'0 0.0 020 / 11986.3 6.5 4.4
2015-Mar-28 11:00N 57°12' W 154°42'3 3.3 050 / 13986.8 5.9 0.3 4.5
2015-Mar-28 10:00N 57°12' W 154°48'10 9.8 030 / 16987.4 5.6 4.9
2015-Mar-28 09:00N 57°12' W 155°06'10 9.8 040 / 23987.5 5.2 5.0
2015-Mar-28 08:00N 57°12' W 155°24'1413.7 050 / 32987.3 5.1 2.4 5.1
2015-Mar-28 07:00N 57°00' W 155°12'9 8.9 060 / 19988.2 5.2 1.8 5.0
2015-Mar-28 06:00N 56°54' W 155°00'2411.8 050 / 23988.2 5.2 1.8 5.0
2015-Mar-28 04:00N 57°00' W 155°42'9 8.9 070 / 17989.4 5.3 1.7 4.8
2015-Mar-28 03:00N 57°06' W 155°54'3195.5 090 / 19990.2 5.4 1.0 5.2 1.1-4.9
2015-Mar-28 02:59N 57°06' W 156°00'7 6.9 090 / 19990.1 5.2 4.9
2015-Mar-28 02:00N 57°00' W 155°54'2914.7 090 / 27990.4 5.0 1.8 5.1
2015-Mar-28 00:01N 56°36' W 155°24'3198.2 100 / 27991.2 5.2 5.0
2015-Mar-28 00:00N 56°36' W 155°18'17 8.3 100 / 24991.1 5.4 2.0 5.2 1.9-5.0
2015-Mar-27 22:00N 56°36' W 155°48'0 0.0 120 / 25991.4 5.1 1.0 5.1
2015-Mar-27 21:01N 56°36' W 155°48'3 3.3 120 / 23992.2 5.1 4.9
2015-Mar-27 20:01N 56°36' W 155°54'0 0.0 140 / 24992.0 5.2 5.1
2015-Mar-27 20:00N 56°36' W 155°54'3 3.3 130 / 25991.7 5.1 0.6 5.1
2015-Mar-27 19:00N 56°36' W 155°48'3 3.4 140 / 25991.5 5.0 4.9
2015-Mar-27 18:01N 56°36' W 155°42'7410.8 150 / 23991.4 4.7 4.9
2015-Mar-27 18:00N 56°42' W 155°48'7 6.7 140 / 20991.2 4.6 1.6 4.9
2015-Mar-27 17:01N 56°42' W 156°00'3197.6 180 / 25990.7 4.2 4.8
2015-Mar-27 17:00N 56°42' W 156°06'3 3.3 160 / 31990.1 4.5 1.6 4.8
2015-Mar-27 16:00N 56°42' W 156°12'9 4.5 180 / 25989.4 3.8 4.9
2015-Mar-27 14:01N 56°36' W 156°00'0 0.0 160 / 32988.2 4.5 4.4
2015-Mar-27 14:00N 56°36' W 156°00'1413.9 160 / 30988.0 4.4 2.7 4.8
2015-Mar-27 13:01N 56°24' W 155°48'6360.0 160 / 29988.0 4.4 5.0
2015-Mar-27 13:00N 56°30' W 155°48'2512.4 160 / 28987.8 4.4 2.8 5.0
2015-Mar-27 11:01N 56°12' W 155°18'0 0.0 160 / 29987.7 4.6 5.5
2015-Mar-27 11:00N 56°12' W 155°18'2311.8 170 / 32987.5 4.6 3.1 5.5
2015-Mar-27 09:01N 56°00' W 154°42'10 9.9 160 / 31987.4 4.8 5.5
2015-Mar-27 08:00N 56°00' W 154°24'7 6.9 160 / 32987.5 4.4 3.7 5.2
2015-Mar-27 07:00N 55°54' W 154°18'21 4.2 150 / 30987.6 3.5 2.6 5.2
2015-Mar-27 02:00N 55°48' W 153°42'12 6.0 150 / 26990.0 5.1 5.1
2015-Mar-27 00:00N 56°00' W 153°42'7 7.0 160 / 21990.4 5.4 1.8 5.5
2015-Mar-26 23:01N 56°06' W 153°36'0 0.0 190 / 23990.4 5.5 5.5
2015-Mar-26 23:00N 56°06' W 153°36'0 0.0 180 / 22990.2 5.3 1.5 5.5
2015-Mar-26 22:01N 56°06' W 153°36'0 0.0 190 / 17990.0 5.4 5.6
2015-Mar-26 22:00N 56°06' W 153°36'0 0.0 190 / 15989.6 5.3 2.5 5.6
2015-Mar-26 21:01N 56°06' W 153°36'6360.0 200 / 22989.0 5.6 5.6
2015-Mar-26 21:00N 56°12' W 153°36'7 7.0 200 / 21988.6 5.6 3.1 5.6
2015-Mar-26 20:01N 56°06' W 153°30'6360.0 200 / 21987.8 5.1 5.5
2015-Mar-26 20:00N 56°12' W 153°30'1010.2 200 / 22987.5 5.1 3.9 5.6
2015-Mar-26 19:01N 56°12' W 153°12'7411.8 200 / 13987.0 5.3 5.5
2015-Mar-26 19:00N 56°18' W 153°18'13 6.7 210 / 13986.6 5.4 3.7 5.5
2015-Mar-26 17:00N 56°18' W 152°54'1010.0 210 / 16984.5 4.8 4.6 5.5
2015-Mar-26 16:00N 56°18' W 152°36'7 6.8 230 / 4983.6 5.1 5.0 5.6
2015-Mar-26 15:01N 56°18' W 152°24'0 0.0 320 / 5982.9 5.2 5.6
2015-Mar-26 15:00N 56°18' W 152°24'3 3.4 330 / 5982.5 5.2 4.9 5.5
2015-Mar-26 14:01N 56°18' W 152°18'7411.6 030 / 3981.9 5.3 5.6
2015-Mar-26 14:00N 56°24' W 152°24'3 3.4 020 / 5981.5 5.3 5.0 5.6
2015-Mar-26 13:01N 56°24' W 152°30'3199.2 030 / 12981.1 5.1 5.5
2015-Mar-26 13:00N 56°24' W 152°36'7 7.0 030 / 14980.7 5.5 4.9 5.5
2015-Mar-26 12:01N 56°30' W 152°42'7411.1 050 / 15981.0 5.2 5.6
2015-Mar-26 12:00N 56°36' W 152°48'3 3.4 040 / 17980.9 5.3 4.5 5.6
2015-Mar-26 11:01N 56°36' W 152°54'7410.8 040 / 21981.4 5.4 5.5
2015-Mar-26 11:00N 56°42' W 153°00'9 9.1 040 / 22981.3 5.4 4.5 5.4
2015-Mar-26 10:01N 56°48' W 153°12'0 0.0 040 / 23981.8 5.7 5.4
2015-Mar-26 10:00N 56°48' W 153°12'9 9.0 040 / 23981.7 5.7 5.1 5.4
2015-Mar-26 09:01N 56°54' W 153°24'0 0.0 050 / 23982.4 5.5 5.0
2015-Mar-26 09:00N 56°54' W 153°24'6 6.1 050 / 23982.3 5.5 4.8 5.0
2015-Mar-26 08:01N 57°00' W 153°24'7409.8 040 / 18983.0 5.4 5.2
2015-Mar-26 08:00N 57°06' W 153°30'0 0.0 030 / 12982.9 5.4 3.6 5.2
2015-Mar-26 07:01N 57°06' W 153°30'0 0.0 350 / 8982.9 6.4 5.3
2015-Mar-26 07:00N 57°06' W 153°30'0 0.0 040 / 6982.8 6.1 3.6 5.3
2015-Mar-26 06:01N 57°06' W 153°30'0 0.0 360 / 15982.9 5.8 5.3
2015-Mar-26 06:00N 57°06' W 153°30'0 0.0 010 / 10982.8 5.7 3.1 5.3
2015-Mar-26 05:00N 57°06' W 153°30'0 0.0 982.7 5.4 3.2 5.3
2015-Mar-26 04:01N 57°06' W 153°30'0 0.0 340 / 8982.8 5.5 5.3
2015-Mar-26 04:00N 57°06' W 153°30'0 0.0 360 / 13982.6 5.6 3.3 5.3
2015-Mar-26 03:00N 57°06' W 153°30'0 0.0 982.8 6.0 2.7 5.3
2015-Mar-26 02:01N 57°06' W 153°30'0 0.0 040 / 8983.1 6.0 5.3
2015-Mar-26 02:00N 57°06' W 153°30'0 0.0 010 / 9982.9 6.1 2.4 5.3
2015-Mar-26 01:00N 57°06' W 153°30'0 0.0 010 / 19983.0 6.0 2.5 5.3
2015-Mar-26 00:01N 57°06' W 153°30'0 0.0 350 / 23983.3 5.9 5.3
2015-Mar-26 00:00N 57°06' W 153°30'0 0.0 360 / 17983.2 5.7 3.7 5.3
2015-Mar-25 23:01N 57°06' W 153°30'0 0.0 360 / 20984.0 5.5 5.3
2015-Mar-25 23:00N 57°06' W 153°30'0 0.0 010 / 19983.8 5.5 2.4 5.3
2015-Mar-25 22:01N 57°06' W 153°30'0 0.0 020 / 21984.4 6.2 5.3
2015-Mar-25 22:00N 57°06' W 153°30'0 0.0 020 / 14984.1 6.1 2.4 5.3
2015-Mar-25 21:01N 57°06' W 153°30'0 0.0 010 / 23984.3 5.4 5.3
2015-Mar-25 21:00N 57°06' W 153°30'0 0.0 360 / 21984.2 5.8 2.3 5.3
2015-Mar-25 20:01N 57°06' W 153°30'0 0.0 010 / 20985.0 5.4 5.3
2015-Mar-25 20:00N 57°06' W 153°30'0 0.0 020 / 15984.9 6.2 2.2 5.3
2015-Mar-25 19:01N 57°06' W 153°30'0 0.0 360 / 22985.9 5.4 5.3
2015-Mar-25 19:00N 57°06' W 153°30'0 0.0 350 / 25985.4 5.1 1.6 5.3
2015-Mar-25 18:01N 57°06' W 153°30'3195.5 350 / 26986.6 4.8 5.3
2015-Mar-25 18:00N 57°06' W 153°24'3 1.6 350 / 19986.6 2.2 5.6 4.6-5.3
2015-Mar-25 16:00N 57°06' W 153°30'0 0.0 030 / 18987.5 5.9 2.4 5.3
2015-Mar-25 15:01N 57°06' W 153°30'0 0.0 040 / 16988.4 6.2 5.3
2015-Mar-25 15:00N 57°06' W 153°30'0 0.0 030 / 13988.2 6.0 3.0 5.3
2015-Mar-25 14:00N 57°06' W 153°30'3 1.6 050 / 14989.0 5.9 2.6 5.3
2015-Mar-25 12:00N 57°06' W 153°24'3 3.3 360 / 24989.8 2.2 1.0 5.2 -5.2
2015-Mar-25 11:00N 57°06' W 153°30'0 0.0 040 / 19991.0 5.1 5.3
2015-Mar-25 10:00N 57°06' W 153°30'0 0.0 020 / 20992.1 5.4 5.3
2015-Mar-25 09:00N 57°06' W 153°30'0 0.0 992.2 5.6 1.7 5.3
2015-Mar-25 08:00N 57°06' W 153°30'0 0.0 020 / 17993.2 6.7 0.8 5.3
2015-Mar-25 07:00N 57°06' W 153°30'3 3.3 120 / 9994.9 7.0 0.3 5.3
2015-Mar-25 06:00N 57°06' W 153°24'3 3.3 120 / 19996.4 5.4 7.0 -5.3
2015-Mar-25 05:00N 57°06' W 153°30'0 0.0 090 / 16997.2 6.5 0.6 5.3
2015-Mar-25 02:00N 57°06' W 153°30'0 0.0 170 / 20998.6 6.6 0.9 5.4
2015-Mar-25 00:00N 57°06' W 153°30'0 0.0 080 / 17999.7 6.2 1.4 5.3
2015-Mar-24 23:00N 57°06' W 153°30'0 0.0 010 / 141000.9 5.8 2.1 5.4
2015-Mar-24 22:00N 57°06' W 153°30'0 0.0 020 / 131001.9 5.6 1.9 5.3
2015-Mar-24 21:59N 57°06' W 153°30'0 0.0 030 / 31002.1 5.6 5.3
2015-Mar-24 21:00N 57°06' W 153°30'0 0.0 050 / 151002.7 5.5 2.3 5.4
2015-Mar-24 20:00N 57°06' W 153°30'0 0.0 060 / 171002.7 5.7 2.3 5.3
2015-Mar-24 19:59N 57°06' W 153°30'0 0.0 070 / 191002.8 5.3 5.1
2015-Mar-24 19:00N 57°06' W 153°30'7 6.8 070 / 191002.9 4.6 2.0 5.3
2015-Mar-24 18:00N 57°00' W 153°24'1212.4 070 / 201002.9 5.4 2.4 5.0
2015-Mar-24 17:00N 56°48' W 153°18'1211.6 080 / 301002.2 5.5 3.8 5.4
2015-Mar-24 16:00N 56°42' W 153°00'1413.7 080 / 251002.0 5.6 3.7 5.4
2015-Mar-24 15:00N 56°30' W 152°48'1211.6 080 / 281001.9 5.6 3.8 5.5
2015-Mar-24 14:00N 56°24' W 152°30'9 3.0 100 / 271002.0 5.7 3.0 5.4
2015-Mar-24 11:00N 56°18' W 152°42'7 6.7 110 / 201003.1 5.8 3.7 5.6
2015-Mar-24 10:00N 56°18' W 152°54'3 3.4 110 / 201003.0 5.5 5.2 5.4
2015-Mar-24 09:01N 56°18' W 153°00'3199.7 110 / 221003.5 4.9 5.4
2015-Mar-24 09:00N 56°18' W 153°06'7 7.0 110 / 261003.4 5.1 5.1 5.4
2015-Mar-24 08:01N 56°12' W 153°12'0 0.0 100 / 221003.2 5.9 5.5
2015-Mar-24 08:00N 56°12' W 153°12'0 0.0 090 / 231003.2 5.8 3.6 5.5
2015-Mar-24 07:01N 56°12' W 153°12'7411.8 100 / 181003.6 5.6 5.5
2015-Mar-24 07:00N 56°18' W 153°18'1212.0 100 / 221003.2 5.6 3.9 5.4
2015-Mar-24 06:00N 56°06' W 153°18'3 3.4 090 / 221003.4 5.6 3.4 5.4
2015-Mar-24 05:01N 56°06' W 153°24'7412.1 080 / 221003.3 5.5 5.3
2015-Mar-24 05:00N 56°12' W 153°30'3 3.3 080 / 231003.0 5.5 3.5 5.5
2015-Mar-24 04:00N 56°12' W 153°36'1010.2 090 / 211003.3 5.5 3.6 5.5
2015-Mar-24 03:01N 56°12' W 153°54'3200.3 090 / 231003.4 5.3 5.5
2015-Mar-24 03:00N 56°12' W 153°48'18 9.0 090 / 241003.2 5.4 5.4 3.5-5.5
2015-Mar-24 01:00N 56°00' W 153°24'3 3.4 090 / 251003.5 5.2 4.1 5.1
2015-Mar-24 00:01N 56°00' W 153°30'3201.3 090 / 291003.9 5.6 5.2
2015-Mar-24 00:00N 56°00' W 153°24'1212.7 090 / 301003.7 2.2 2.0 5.5 5.1-5.3
2015-Mar-23 23:01N 55°48' W 153°30'7412.8 070 / 281004.2 4.9 5.2
2015-Mar-23 23:00N 55°54' W 153°36'3 3.4 070 / 301003.9 4.8 4.2 5.2
2015-Mar-23 22:01N 55°54' W 153°42'0 0.0 080 / 301004.5 4.5 5.1
2015-Mar-23 22:00N 55°54' W 153°42'7 6.7 090 / 321004.4 4.7 4.0 5.1
2015-Mar-23 21:00N 55°54' W 153°54'0 0.0 070 / 311005.0 5.3 2.9 5.1
2015-Mar-23 20:01N 55°54' W 153°54'6360.0 070 / 281006.0 5.4 5.1
2015-Mar-23 20:00N 56°00' W 153°54'7 7.0 070 / 291005.8 5.5 2.1 5.1
2015-Mar-23 19:01N 55°54' W 154°00'0 0.0 080 / 311005.8 5.7 5.4
2015-Mar-23 19:00N 55°54' W 154°00'7 7.0 080 / 301005.6 5.7 1.3 5.2
2015-Mar-23 18:01N 55°48' W 154°06'6360.0 080 / 281006.0 5.4 5.1
2015-Mar-23 18:00N 55°54' W 154°06'9 9.2 080 / 241005.9 5.4 1.2 5.1
2015-Mar-23 17:01N 55°48' W 154°18'6360.0 070 / 261006.3 5.5 5.5
2015-Mar-23 17:00N 55°54' W 154°18'3 3.4 070 / 261006.1 5.5 2.7 5.5
2015-Mar-23 16:00N 55°54' W 154°12'7 6.8 070 / 281006.6 5.4 1.8 5.5
2015-Mar-23 15:01N 55°54' W 154°24'0 0.0 080 / 311006.3 5.5 5.5
2015-Mar-23 15:00N 55°54' W 154°24'3 3.4 080 / 301005.9 5.5 3.4 5.5
2015-Mar-23 14:00N 55°54' W 154°30'7 7.0 070 / 291006.8 5.7 3.7 5.5
2015-Mar-23 13:01N 56°00' W 154°36'7412.3 070 / 241007.2 5.8 5.4
2015-Mar-23 13:00N 56°06' W 154°42'1212.7 070 / 241007.0 5.9 3.4 5.4
2015-Mar-23 12:01N 55°54' W 154°36'3201.8 080 / 271007.0 5.9 5.3
2015-Mar-23 12:00N 55°54' W 154°30'7 6.7 080 / 241006.9 2.2 2.0 5.4 3.7-5.3
2015-Mar-23 11:00N 55°54' W 154°42'7 6.8 070 / 251007.0 5.7 5.8 5.4
2015-Mar-23 10:01N 55°54' W 154°54'6360.0 080 / 261007.2 5.3 5.5
2015-Mar-23 10:00N 56°00' W 154°54'1212.0 080 / 271006.8 5.3 5.3 5.5
2015-Mar-23 09:00N 55°48' W 154°54'7 6.9 080 / 301006.8 5.5 5.5 5.3
2015-Mar-23 08:00N 55°42' W 154°48'10 5.1 070 / 271006.6 5.2 4.5 5.4
2015-Mar-23 06:00N 55°42' W 155°06'6 6.1 080 / 311006.0 5.8 4.6 5.4
2015-Mar-23 05:01N 55°36' W 155°06'3203.4 060 / 271006.5 5.5 5.6
2015-Mar-23 05:00N 55°36' W 155°12'3 3.4 060 / 271006.1 5.6 4.7 5.5
2015-Mar-23 04:00N 55°36' W 155°18'1212.0 060 / 271006.5 5.8 5.4
2015-Mar-23 03:01N 55°42' W 155°36'0 0.0 060 / 261006.4 5.2 4.9
2015-Mar-23 03:00N 55°42' W 155°36'7 6.9 060 / 261006.2 5.1 4.8 4.9
2015-Mar-23 02:01N 55°42' W 155°48'7413.1 070 / 231006.4 5.4 4.9
2015-Mar-23 02:00N 55°48' W 155°54'7 6.9 070 / 241006.2 5.3 5.2 5.0
2015-Mar-23 01:01N 55°48' W 156°06'3202.4 060 / 281006.2 5.1 5.1
2015-Mar-23 01:00N 55°48' W 156°12'0 0.0 060 / 261006.0 5.1 4.7 5.1
2015-Mar-23 00:00N 55°48' W 156°12'1515.0 060 / 301006.4 2.2 1.5 5.1 3.6-5.0
2015-Mar-22 23:01N 55°54' W 156°36'0 0.0 060 / 291006.7 5.0 5.0
2015-Mar-22 23:00N 55°54' W 156°36'6 6.0 060 / 311006.6 4.9 3.4 5.0
2015-Mar-22 22:00N 56°00' W 156°36'2110.6 050 / 241007.6 5.4 3.6 5.1
2015-Mar-22 20:01N 55°54' W 156°00'6360.0 070 / 241008.0 5.5 5.1
2015-Mar-22 20:00N 56°00' W 156°00'3 3.4 060 / 251008.0 5.5 3.3 5.1
2015-Mar-22 19:01N 56°00' W 156°06'7412.3 050 / 221008.3 5.0 5.0
2015-Mar-22 19:00N 56°06' W 156°12'1010.2 050 / 221008.4 5.0 3.2 4.9
2015-Mar-22 18:01N 56°06' W 156°30'7401.6 050 / 221008.8 5.0 4.9
2015-Mar-22 18:00N 56°06' W 156°18'7 6.8 040 / 191008.8 5.4 1.0 5.0 2.0-4.9
2015-Mar-22 17:01N 56°06' W 156°30'0 0.0 060 / 221008.7 5.0 5.0
2015-Mar-22 17:00N 56°06' W 156°30'7 6.9 050 / 221008.5 5.0 2.1 5.0
2015-Mar-22 16:00N 56°12' W 156°36'1313.4 060 / 231008.8 4.8 1.9 4.9
2015-Mar-22 15:00N 56°12' W 156°12'7 6.8 060 / 191008.810.8 1.0 5.2 2.1-5.0
2015-Mar-22 14:01N 56°12' W 156°00'3200.3 050 / 191008.5 4.6 4.9
2015-Mar-22 14:00N 56°12' W 156°06'0 0.0 050 / 191008.2 4.6 2.5 5.0
2015-Mar-22 13:00N 56°12' W 156°06'9 9.0 050 / 201008.3 4.4 2.6 5.0
2015-Mar-22 12:00N 56°18' W 155°54'1211.6 060 / 191008.7 4.5 2.4 5.1
2015-Mar-22 11:00N 56°24' W 156°12'1010.0 060 / 171008.8 4.5 1.2 4.9
2015-Mar-22 10:00N 56°24' W 156°30'3 3.3 080 / 161009.0 4.7 1.0 5.0
2015-Mar-22 09:00N 56°24' W 156°36'6 6.0 090 / 151009.3 4.7 1.4 5.0
2015-Mar-22 08:00N 56°30' W 156°36'3010.1 080 / 141009.1 4.8 1.9 5.0
2015-Mar-22 05:00N 56°24' W 155°42'0 0.0 100 / 141008.0 4.9 1.8 5.1
2015-Mar-22 04:00N 56°24' W 155°42'3 3.3 090 / 141007.8 4.8 2.2 5.0
2015-Mar-22 03:00N 56°24' W 155°48'7 6.6 090 / 111007.1 5.4 2.9 5.1
2015-Mar-22 02:00N 56°24' W 155°36'9 8.9 090 / 131006.9 5.3 3.1 5.1
2015-Mar-22 01:00N 56°30' W 155°48'1211.6 090 / 121006.7 4.8 2.8 5.0
2015-Mar-22 00:00N 56°36' W 156°06'1414.5 090 / 91006.2 5.4 0.5 4.8 2.5-4.9
2015-Mar-21 23:00N 56°42' W 156°30'26 8.8 090 / 101006.1 4.9 2.6 5.0
2015-Mar-21 20:00N 56°42' W 155°42'3 3.3 080 / 61005.3 4.7 2.7 5.0
2015-Mar-21 19:00N 56°42' W 155°48'6360.0 100 / 81004.8 4.7 2.1 4.9
2015-Mar-21 18:59N 56°36' W 155°48'0 0.0 120 / 91005.0 4.6 4.9
2015-Mar-21 18:00N 56°36' W 155°48'3198.2 120 / 101003.9 4.2 2.5 4.9
2015-Mar-21 17:59N 56°36' W 155°42'7 7.0 120 / 91004.3 4.4 4.9
2015-Mar-21 17:00N 56°42' W 155°48'7410.8 090 / 81003.4 4.3 2.5 4.9
2015-Mar-21 16:59N 56°36' W 155°42'3 3.4 110 / 91003.7 4.3 4.9
2015-Mar-21 16:00N 56°36' W 155°48'0 0.0 120 / 101002.8 4.2 2.5 4.9
2015-Mar-21 15:59N 56°36' W 155°48'1010.1 110 / 91003.1 4.2 4.9
2015-Mar-21 15:00N 56°36' W 155°30'9 8.9 140 / 61002.5 3.0 1.7 4.8
2015-Mar-21 14:00N 56°42' W 155°18'9 8.9 100 / 111001.9 3.9 2.6 4.7
2015-Mar-21 13:00N 56°48' W 155°30'0 0.0 120 / 101001.4 4.2 2.5 4.8
2015-Mar-21 12:00N 56°48' W 155°30'3 3.3 120 / 121001.2 3.8 2.2 4.9
2015-Mar-21 11:00N 56°48' W 155°36'10 9.9 150 / 121000.5 4.2 2.1 5.1
2015-Mar-21 10:00N 56°48' W 155°54'1211.5 150 / 101000.3 4.4 0.9 4.6
2015-Mar-21 09:00N 56°54' W 156°12'7410.3 130 / 81000.3 4.3 1.6 4.8
2015-Mar-21 08:59N 56°48' W 156°06'1413.9 100 / 81000.5 4.4 4.8
2015-Mar-21 08:00N 57°00' W 156°18'17 8.7 110 / 81000.2 4.6 0.9 4.5
2015-Mar-21 06:00N 56°54' W 155°48'3196.6 150 / 10999.5 4.7 0.4 5.0
2015-Mar-21 05:59N 56°54' W 155°42'9 9.0 150 / 10999.7 4.7 5.0
2015-Mar-21 05:00N 57°00' W 155°54'7 6.5 140 / 12998.9 4.8 0.2 5.0
2015-Mar-21 04:00N 57°00' W 156°06'1414.4 150 / 8998.4 5.0 0.7 5.1
2015-Mar-21 03:00N 56°54' W 155°42'10 9.8 150 / 10998.2 5.0 1.8 5.3
2015-Mar-21 02:00N 56°54' W 155°24'1414.4 140 / 10998.2 4.8 2.2 4.8
2015-Mar-21 01:00N 56°48' W 155°00'7 6.8 110 / 11997.9 4.4 3.0 5.2
2015-Mar-21 00:00N 56°54' W 155°06'1414.4 140 / 13997.4 5.4 2.0 4.5 3.3-5.0
2015-Mar-20 23:00N 57°00' W 155°30'1313.1 120 / 17996.7 4.3 3.4 5.2
2015-Mar-20 22:00N 57°00' W 155°54'9 8.9 100 / 26996.3 5.3 3.5 5.1
2015-Mar-20 21:00N 57°06' W 156°06'1212.4 080 / 23996.2 4.4 3.0 4.8
2015-Mar-20 20:00N 57°18' W 156°00'1111.4 080 / 24996.3 5.2 3.4 5.0
2015-Mar-20 19:00N 57°12' W 155°42'1414.3 070 / 28996.1 5.1 3.2 5.0
2015-Mar-20 18:00N 57°06' W 155°18'3 3.3 080 / 15996.0 4.9 2.8 4.9
2015-Mar-20 17:00N 57°06' W 155°12'6 6.0 080 / 11995.4 5.0 3.0 5.0
2015-Mar-20 16:00N 57°00' W 155°12'11 5.8 070 / 20995.2 5.1 2.9 4.9
2015-Mar-20 14:01N 57°06' W 154°54'7409.6 030 / 18995.2 5.2 4.8
2015-Mar-20 14:00N 57°12' W 155°00'7 6.5 030 / 21994.8 5.2 2.6 4.8
2015-Mar-20 13:00N 57°12' W 155°12'7 6.5 040 / 35995.1 4.9 3.4 4.9
2015-Mar-20 12:00N 57°12' W 155°24'1111.4 040 / 34996.1 4.6 2.7 5.0
2015-Mar-20 11:00N 57°18' W 155°42'7 6.8 040 / 37997.0 4.3 1.7 4.6
2015-Mar-20 10:00N 57°24' W 155°36'3 3.2 050 / 34998.2 4.8 2.3 4.7
2015-Mar-20 09:00N 57°24' W 155°30'0 0.0 050 / 34999.1 4.6 2.3 4.5
2015-Mar-20 08:00N 57°24' W 155°30'3 3.2 060 / 291000.4 4.5 2.0 4.6
2015-Mar-20 07:00N 57°24' W 155°36'3 3.2 050 / 231001.1 5.0 2.3 4.4
2015-Mar-20 06:00N 57°24' W 155°30'17 8.6 050 / 261000.8 4.2 3.0 4.5
2015-Mar-20 04:00N 57°18' W 155°00'0 0.0 040 / 211000.7 4.9 3.7 4.8
2015-Mar-20 03:01N 57°18' W 155°00'3194.5 040 / 241000.7 5.1 4.9
2015-Mar-20 03:00N 57°18' W 155°06'11 5.7 040 / 221000.5 5.0 3.2 4.9
2015-Mar-20 01:00N 57°24' W 154°48'3 3.2 030 / 141001.3 5.6 5.0
2015-Mar-20 00:00N 57°24' W 154°54'1111.4 040 / 241001.8 5.4 1.0 4.2 3.5-4.9
2015-Mar-19 23:00N 57°30' W 155°12'0 0.0 050 / 111002.4 4.4 3.5 5.1
2015-Mar-19 22:00N 57°30' W 155°12'10 9.7 030 / 101002.8 3.1 2.7 5.1
2015-Mar-19 21:00N 57°30' W 155°30'1111.4 020 / 101003.3 5.4 0.5 3.8 2.3 3.2
2015-Mar-19 20:00N 57°36' W 155°12'14 4.7 020 / 71003.0 3.5 1.3 4.8
2015-Mar-19 17:00N 57°30' W 154°48'7 6.8 270 / 11002.7 2.7 1.4 4.8
2015-Mar-19 16:00N 57°36' W 154°42'1111.3 150 / 41002.6 2.2 1.8 5.0
2015-Mar-19 15:00N 57°42' W 155°00'7 1.7 050 / 61002.6 2.5 1.8 3.4
2015-Mar-19 11:00N 57°48' W 154°54'   010 / 111002.2 1.4 0.8 2.9
Track history (hours):
 
Tides and Currents Weather Stations Pressure Air Temp Water Temp Dewpoint Dewpoint Depression Visibility Wind Speed Wind Dir Waves Ship Positions

Oceanographic research ship Oscar Dyson (USA)

Ship's website: http://www.moc.noaa.gov/od/

Detailed information on ship capabilities available from University of Delaware's Ocean Information Center and ARCUS's ALIAS (Arctic Logistics Information and Support) project.

Last reported at 2015-Mar-29 10:00 UTC. Time now 2015-Mar-29 10:42 UTC.
Position N 57°12' W 154°42'.

Type: Ship. MMSI: 369959000.

Wind from 010 at 22 knots

Barometer 986.7 mb
Air temperature 5.4 ° C
Dewpoint 1.8 ° C
Water temperature 4.6 ° C

Date/timePositionNaut miles runAvg speedWind from/ knotsBaromVisibWave heightAir tempDewpointWater temp
2015-Mar-29 10:00N 57°12' W 154°42'6 6.0 010 / 22986.7 5.4 1.8 4.6
2015-Mar-29 09:00N 57°18' W 154°42'6 3.0 030 / 22985.7 5.7 2.1 4.6
2015-Mar-29 07:01N 57°12' W 154°42'0 0.0 020 / 19985.8 6.5 4.6
2015-Mar-29 06:01N 57°12' W 154°42'3195.0 010 / 18985.6 6.7 4.6
2015-Mar-29 06:00N 57°12' W 154°36'3 3.3 020 / 19985.7 5.4 0.5 6.7 1.9-4.6
2015-Mar-29 05:00N 57°12' W 154°42'0 0.0 010 / 23985.5 6.5 2.6 4.6
2015-Mar-29 04:00N 57°12' W 154°42'0 0.0 360 / 22985.2 6.8 4.7
2015-Mar-29 03:00N 57°12' W 154°42'0 0.0 360 / 21985.0 7.5 3.2 4.8
2015-Mar-29 02:00N 57°12' W 154°42'0 0.0 030 / 17985.1 9.2 4.8
2015-Mar-29 01:00N 57°12' W 154°42'0 0.0 020 / 18984.9 9.4 0.8 4.8
2015-Mar-29 00:00N 57°12' W 154°42'0 0.0 010 / 19985.010.8 0.5 8.5 3.2 4.7
2015-Mar-28 23:00N 57°12' W 154°42'0 0.0 010 / 18985.1 8.8 2.9 4.7
2015-Mar-28 22:00N 57°12' W 154°42'6 6.0 040 / 13985.6 10.0 4.6
2015-Mar-28 21:00N 57°18' W 154°42'6360.0 040 / 12985.6 9.3 1.4 4.7
2015-Mar-28 20:59N 57°12' W 154°42'0 0.0 050 / 14985.8 9.5 4.8
2015-Mar-28 20:00N 57°12' W 154°42'6 2.0 060 / 19985.7 8.9 1.9 4.6
2015-Mar-28 17:00N 57°18' W 154°42'6360.0 020 / 13985.4 6.4 1.8 4.4
2015-Mar-28 16:59N 57°12' W 154°42'0 0.0 010 / 14985.6 6.6 4.4
2015-Mar-28 16:00N 57°12' W 154°42'0 0.0 030 / 14985.9 6.6 1.0 4.4
2015-Mar-28 14:00N 57°12' W 154°42'0 0.0 040 / 14985.9 6.8-0.0 4.4
2015-Mar-28 13:00N 57°12' W 154°42'0 0.0 020 / 11986.3 6.5 4.4
2015-Mar-28 11:00N 57°12' W 154°42'3 3.3 050 / 13986.8 5.9 0.3 4.5
2015-Mar-28 10:00N 57°12' W 154°48'10 9.8 030 / 16987.4 5.6 4.9
2015-Mar-28 09:00N 57°12' W 155°06'10 9.8 040 / 23987.5 5.2 5.0
2015-Mar-28 08:00N 57°12' W 155°24'1413.7 050 / 32987.3 5.1 2.4 5.1
2015-Mar-28 07:00N 57°00' W 155°12'9 8.9 060 / 19988.2 5.2 1.8 5.0
2015-Mar-28 06:00N 56°54' W 155°00'2411.8 050 / 23988.2 5.2 1.8 5.0
2015-Mar-28 04:00N 57°00' W 155°42'9 8.9 070 / 17989.4 5.3 1.7 4.8
2015-Mar-28 03:00N 57°06' W 155°54'3195.5 090 / 19990.2 5.4 1.0 5.2 1.1-4.9
2015-Mar-28 02:59N 57°06' W 156°00'7 6.9 090 / 19990.1 5.2 4.9
2015-Mar-28 02:00N 57°00' W 155°54'2914.7 090 / 27990.4 5.0 1.8 5.1
2015-Mar-28 00:01N 56°36' W 155°24'3198.2 100 / 27991.2 5.2 5.0
2015-Mar-28 00:00N 56°36' W 155°18'17 8.3 100 / 24991.1 5.4 2.0 5.2 1.9-5.0
2015-Mar-27 22:00N 56°36' W 155°48'0 0.0 120 / 25991.4 5.1 1.0 5.1
2015-Mar-27 21:01N 56°36' W 155°48'3 3.3 120 / 23992.2 5.1 4.9
2015-Mar-27 20:01N 56°36' W 155°54'0 0.0 140 / 24992.0 5.2 5.1
2015-Mar-27 20:00N 56°36' W 155°54'3 3.3 130 / 25991.7 5.1 0.6 5.1
2015-Mar-27 19:00N 56°36' W 155°48'3 3.4 140 / 25991.5 5.0 4.9
2015-Mar-27 18:01N 56°36' W 155°42'7410.8 150 / 23991.4 4.7 4.9
2015-Mar-27 18:00N 56°42' W 155°48'7 6.7 140 / 20991.2 4.6 1.6 4.9
2015-Mar-27 17:01N 56°42' W 156°00'3197.6 180 / 25990.7 4.2 4.8
2015-Mar-27 17:00N 56°42' W 156°06'3 3.3 160 / 31990.1 4.5 1.6 4.8
2015-Mar-27 16:00N 56°42' W 156°12'9 4.5 180 / 25989.4 3.8 4.9
2015-Mar-27 14:01N 56°36' W 156°00'0 0.0 160 / 32988.2 4.5 4.4
2015-Mar-27 14:00N 56°36' W 156°00'1413.9 160 / 30988.0 4.4 2.7 4.8
2015-Mar-27 13:01N 56°24' W 155°48'6360.0 160 / 29988.0 4.4 5.0
2015-Mar-27 13:00N 56°30' W 155°48'2512.4 160 / 28987.8 4.4 2.8 5.0
2015-Mar-27 11:01N 56°12' W 155°18'0 0.0 160 / 29987.7 4.6 5.5
2015-Mar-27 11:00N 56°12' W 155°18'2311.8 170 / 32987.5 4.6 3.1 5.5
2015-Mar-27 09:01N 56°00' W 154°42'10 9.9 160 / 31987.4 4.8 5.5
2015-Mar-27 08:00N 56°00' W 154°24'7 6.9 160 / 32987.5 4.4 3.7 5.2
2015-Mar-27 07:00N 55°54' W 154°18'21 4.2 150 / 30987.6 3.5 2.6 5.2
2015-Mar-27 02:00N 55°48' W 153°42'12 6.0 150 / 26990.0 5.1 5.1
2015-Mar-27 00:00N 56°00' W 153°42'7 7.0 160 / 21990.4 5.4 1.8 5.5
2015-Mar-26 23:01N 56°06' W 153°36'0 0.0 190 / 23990.4 5.5 5.5
2015-Mar-26 23:00N 56°06' W 153°36'0 0.0 180 / 22990.2 5.3 1.5 5.5
2015-Mar-26 22:01N 56°06' W 153°36'0 0.0 190 / 17990.0 5.4 5.6
2015-Mar-26 22:00N 56°06' W 153°36'0 0.0 190 / 15989.6 5.3 2.5 5.6
2015-Mar-26 21:01N 56°06' W 153°36'6360.0 200 / 22989.0 5.6 5.6
2015-Mar-26 21:00N 56°12' W 153°36'7 7.0 200 / 21988.6 5.6 3.1 5.6
2015-Mar-26 20:01N 56°06' W 153°30'6360.0 200 / 21987.8 5.1 5.5
2015-Mar-26 20:00N 56°12' W 153°30'1010.2 200 / 22987.5 5.1 3.9 5.6
2015-Mar-26 19:01N 56°12' W 153°12'7411.8 200 / 13987.0 5.3 5.5
2015-Mar-26 19:00N 56°18' W 153°18'13 6.7 210 / 13986.6 5.4 3.7 5.5
2015-Mar-26 17:00N 56°18' W 152°54'1010.0 210 / 16984.5 4.8 4.6 5.5
2015-Mar-26 16:00N 56°18' W 152°36'7 6.8 230 / 4983.6 5.1 5.0 5.6
2015-Mar-26 15:01N 56°18' W 152°24'0 0.0 320 / 5982.9 5.2 5.6
2015-Mar-26 15:00N 56°18' W 152°24'3 3.4 330 / 5982.5 5.2 4.9 5.5
2015-Mar-26 14:01N 56°18' W 152°18'7411.6 030 / 3981.9 5.3 5.6
2015-Mar-26 14:00N 56°24' W 152°24'3 3.4 020 / 5981.5 5.3 5.0 5.6
2015-Mar-26 13:01N 56°24' W 152°30'3199.2 030 / 12981.1 5.1 5.5
2015-Mar-26 13:00N 56°24' W 152°36'7 7.0 030 / 14980.7 5.5 4.9 5.5
2015-Mar-26 12:01N 56°30' W 152°42'7411.1 050 / 15981.0 5.2 5.6
2015-Mar-26 12:00N 56°36' W 152°48'3 3.4 040 / 17980.9 5.3 4.5 5.6
2015-Mar-26 11:01N 56°36' W 152°54'7410.8 040 / 21981.4 5.4 5.5
2015-Mar-26 11:00N 56°42' W 153°00'9 9.1 040 / 22981.3 5.4 4.5 5.4
2015-Mar-26 10:01N 56°48' W 153°12'0 0.0 040 / 23981.8 5.7 5.4
2015-Mar-26 10:00N 56°48' W 153°12'9 9.0 040 / 23981.7 5.7 5.1 5.4
2015-Mar-26 09:01N 56°54' W 153°24'0 0.0 050 / 23982.4 5.5 5.0
2015-Mar-26 09:00N 56°54' W 153°24'6 6.1 050 / 23982.3 5.5 4.8 5.0
2015-Mar-26 08:01N 57°00' W 153°24'7409.8 040 / 18983.0 5.4 5.2
2015-Mar-26 08:00N 57°06' W 153°30'0 0.0 030 / 12982.9 5.4 3.6 5.2
2015-Mar-26 07:01N 57°06' W 153°30'0 0.0 350 / 8982.9 6.4 5.3
2015-Mar-26 07:00N 57°06' W 153°30'0 0.0 040 / 6982.8 6.1 3.6 5.3
2015-Mar-26 06:01N 57°06' W 153°30'0 0.0 360 / 15982.9 5.8 5.3
2015-Mar-26 06:00N 57°06' W 153°30'0 0.0 010 / 10982.8 5.7 3.1 5.3
2015-Mar-26 05:00N 57°06' W 153°30'0 0.0 982.7 5.4 3.2 5.3
2015-Mar-26 04:01N 57°06' W 153°30'0 0.0 340 / 8982.8 5.5 5.3
2015-Mar-26 04:00N 57°06' W 153°30'0 0.0 360 / 13982.6 5.6 3.3 5.3
2015-Mar-26 03:00N 57°06' W 153°30'0 0.0 982.8 6.0 2.7 5.3
2015-Mar-26 02:01N 57°06' W 153°30'0 0.0 040 / 8983.1 6.0 5.3
2015-Mar-26 02:00N 57°06' W 153°30'0 0.0 010 / 9982.9 6.1 2.4 5.3
2015-Mar-26 01:00N 57°06' W 153°30'0 0.0 010 / 19983.0 6.0 2.5 5.3
2015-Mar-26 00:01N 57°06' W 153°30'0 0.0 350 / 23983.3 5.9 5.3
2015-Mar-26 00:00N 57°06' W 153°30'0 0.0 360 / 17983.2 5.7 3.7 5.3
2015-Mar-25 23:01N 57°06' W 153°30'0 0.0 360 / 20984.0 5.5 5.3
2015-Mar-25 23:00N 57°06' W 153°30'0 0.0 010 / 19983.8 5.5 2.4 5.3
2015-Mar-25 22:01N 57°06' W 153°30'0 0.0 020 / 21984.4 6.2 5.3
2015-Mar-25 22:00N 57°06' W 153°30'0 0.0 020 / 14984.1 6.1 2.4 5.3
2015-Mar-25 21:01N 57°06' W 153°30'0 0.0 010 / 23984.3 5.4 5.3
2015-Mar-25 21:00N 57°06' W 153°30'0 0.0 360 / 21984.2 5.8 2.3 5.3
2015-Mar-25 20:01N 57°06' W 153°30'0 0.0 010 / 20985.0 5.4 5.3
2015-Mar-25 20:00N 57°06' W 153°30'0 0.0 020 / 15984.9 6.2 2.2 5.3
2015-Mar-25 19:01N 57°06' W 153°30'0 0.0 360 / 22985.9 5.4 5.3
2015-Mar-25 19:00N 57°06' W 153°30'0 0.0 350 / 25985.4 5.1 1.6 5.3
2015-Mar-25 18:01N 57°06' W 153°30'3195.5 350 / 26986.6 4.8 5.3
2015-Mar-25 18:00N 57°06' W 153°24'3 1.6 350 / 19986.6 2.2 5.6 4.6-5.3
2015-Mar-25 16:00N 57°06' W 153°30'0 0.0 030 / 18987.5 5.9 2.4 5.3
2015-Mar-25 15:01N 57°06' W 153°30'0 0.0 040 / 16988.4 6.2 5.3
2015-Mar-25 15:00N 57°06' W 153°30'0 0.0 030 / 13988.2 6.0 3.0 5.3
2015-Mar-25 14:00N 57°06' W 153°30'3 1.6 050 / 14989.0 5.9 2.6 5.3
2015-Mar-25 12:00N 57°06' W 153°24'3 3.3 360 / 24989.8 2.2 1.0 5.2 -5.2
2015-Mar-25 11:00N 57°06' W 153°30'0 0.0 040 / 19991.0 5.1 5.3
2015-Mar-25 10:00N 57°06' W 153°30'0 0.0 020 / 20992.1 5.4 5.3
2015-Mar-25 09:00N 57°06' W 153°30'0 0.0 992.2 5.6 1.7 5.3
2015-Mar-25 08:00N 57°06' W 153°30'0 0.0 020 / 17993.2 6.7 0.8 5.3
2015-Mar-25 07:00N 57°06' W 153°30'3 3.3 120 / 9994.9 7.0 0.3 5.3
2015-Mar-25 06:00N 57°06' W 153°24'3 3.3 120 / 19996.4 5.4 7.0 -5.3
2015-Mar-25 05:00N 57°06' W 153°30'0 0.0 090 / 16997.2 6.5 0.6 5.3
2015-Mar-25 02:00N 57°06' W 153°30'0 0.0 170 / 20998.6 6.6 0.9 5.4
2015-Mar-25 00:00N 57°06' W 153°30'0 0.0 080 / 17999.7 6.2 1.4 5.3
2015-Mar-24 23:00N 57°06' W 153°30'0 0.0 010 / 141000.9 5.8 2.1 5.4
2015-Mar-24 22:00N 57°06' W 153°30'0 0.0 020 / 131001.9 5.6 1.9 5.3
2015-Mar-24 21:59N 57°06' W 153°30'0 0.0 030 / 31002.1 5.6 5.3
2015-Mar-24 21:00N 57°06' W 153°30'0 0.0 050 / 151002.7 5.5 2.3 5.4
2015-Mar-24 20:00N 57°06' W 153°30'0 0.0 060 / 171002.7 5.7 2.3 5.3
2015-Mar-24 19:59N 57°06' W 153°30'0 0.0 070 / 191002.8 5.3 5.1
2015-Mar-24 19:00N 57°06' W 153°30'7 6.8 070 / 191002.9 4.6 2.0 5.3
2015-Mar-24 18:00N 57°00' W 153°24'1212.4 070 / 201002.9 5.4 2.4 5.0
2015-Mar-24 17:00N 56°48' W 153°18'1211.6 080 / 301002.2 5.5 3.8 5.4
2015-Mar-24 16:00N 56°42' W 153°00'1413.7 080 / 251002.0 5.6 3.7 5.4
2015-Mar-24 15:00N 56°30' W 152°48'1211.6 080 / 281001.9 5.6 3.8 5.5
2015-Mar-24 14:00N 56°24' W 152°30'9 3.0 100 / 271002.0 5.7 3.0 5.4
2015-Mar-24 11:00N 56°18' W 152°42'7 6.7 110 / 201003.1 5.8 3.7 5.6
2015-Mar-24 10:00N 56°18' W 152°54'3 3.4 110 / 201003.0 5.5 5.2 5.4
2015-Mar-24 09:01N 56°18' W 153°00'3199.7 110 / 221003.5 4.9 5.4
2015-Mar-24 09:00N 56°18' W 153°06'7 7.0 110 / 261003.4 5.1 5.1 5.4
2015-Mar-24 08:01N 56°12' W 153°12'0 0.0 100 / 221003.2 5.9 5.5
2015-Mar-24 08:00N 56°12' W 153°12'0 0.0 090 / 231003.2 5.8 3.6 5.5
2015-Mar-24 07:01N 56°12' W 153°12'7411.8 100 / 181003.6 5.6 5.5
2015-Mar-24 07:00N 56°18' W 153°18'1212.0 100 / 221003.2 5.6 3.9 5.4
2015-Mar-24 06:00N 56°06' W 153°18'3 3.4 090 / 221003.4 5.6 3.4 5.4
2015-Mar-24 05:01N 56°06' W 153°24'7412.1 080 / 221003.3 5.5 5.3
2015-Mar-24 05:00N 56°12' W 153°30'3 3.3 080 / 231003.0 5.5 3.5 5.5
2015-Mar-24 04:00N 56°12' W 153°36'1010.2 090 / 211003.3 5.5 3.6 5.5
2015-Mar-24 03:01N 56°12' W 153°54'3200.3 090 / 231003.4 5.3 5.5
2015-Mar-24 03:00N 56°12' W 153°48'18 9.0 090 / 241003.2 5.4 5.4 3.5-5.5
2015-Mar-24 01:00N 56°00' W 153°24'3 3.4 090 / 251003.5 5.2 4.1 5.1
2015-Mar-24 00:01N 56°00' W 153°30'3201.3 090 / 291003.9 5.6 5.2
2015-Mar-24 00:00N 56°00' W 153°24'1212.7 090 / 301003.7 2.2 2.0 5.5 5.1-5.3
2015-Mar-23 23:01N 55°48' W 153°30'7412.8 070 / 281004.2 4.9 5.2
2015-Mar-23 23:00N 55°54' W 153°36'3 3.4 070 / 301003.9 4.8 4.2 5.2
2015-Mar-23 22:01N 55°54' W 153°42'0 0.0 080 / 301004.5 4.5 5.1
2015-Mar-23 22:00N 55°54' W 153°42'7 6.7 090 / 321004.4 4.7 4.0 5.1
2015-Mar-23 21:00N 55°54' W 153°54'0 0.0 070 / 311005.0 5.3 2.9 5.1
2015-Mar-23 20:01N 55°54' W 153°54'6360.0 070 / 281006.0 5.4 5.1
2015-Mar-23 20:00N 56°00' W 153°54'7 7.0 070 / 291005.8 5.5 2.1 5.1
2015-Mar-23 19:01N 55°54' W 154°00'0 0.0 080 / 311005.8 5.7 5.4
2015-Mar-23 19:00N 55°54' W 154°00'7 7.0 080 / 301005.6 5.7 1.3 5.2
2015-Mar-23 18:01N 55°48' W 154°06'6360.0 080 / 281006.0 5.4 5.1
2015-Mar-23 18:00N 55°54' W 154°06'9 9.2 080 / 241005.9 5.4 1.2 5.1
2015-Mar-23 17:01N 55°48' W 154°18'6360.0 070 / 261006.3 5.5 5.5
2015-Mar-23 17:00N 55°54' W 154°18'3 3.4 070 / 261006.1 5.5 2.7 5.5
2015-Mar-23 16:00N 55°54' W 154°12'7 6.8 070 / 281006.6 5.4 1.8 5.5
2015-Mar-23 15:01N 55°54' W 154°24'0 0.0 080 / 311006.3 5.5 5.5
2015-Mar-23 15:00N 55°54' W 154°24'3 3.4 080 / 301005.9 5.5 3.4 5.5
2015-Mar-23 14:00N 55°54' W 154°30'7 7.0 070 / 291006.8 5.7 3.7 5.5
2015-Mar-23 13:01N 56°00' W 154°36'7412.3 070 / 241007.2 5.8 5.4
2015-Mar-23 13:00N 56°06' W 154°42'1212.7 070 / 241007.0 5.9 3.4 5.4
2015-Mar-23 12:01N 55°54' W 154°36'3201.8 080 / 271007.0 5.9 5.3
2015-Mar-23 12:00N 55°54' W 154°30'7 6.7 080 / 241006.9 2.2 2.0 5.4 3.7-5.3
2015-Mar-23 11:00N 55°54' W 154°42'7 6.8 070 / 251007.0 5.7 5.8 5.4
2015-Mar-23 10:01N 55°54' W 154°54'6360.0 080 / 261007.2 5.3 5.5
2015-Mar-23 10:00N 56°00' W 154°54'1212.0 080 / 271006.8 5.3 5.3 5.5
2015-Mar-23 09:00N 55°48' W 154°54'7 6.9 080 / 301006.8 5.5 5.5 5.3
2015-Mar-23 08:00N 55°42' W 154°48'10 5.1 070 / 271006.6 5.2 4.5 5.4
2015-Mar-23 06:00N 55°42' W 155°06'6 6.1 080 / 311006.0 5.8 4.6 5.4
2015-Mar-23 05:01N 55°36' W 155°06'3203.4 060 / 271006.5 5.5 5.6
2015-Mar-23 05:00N 55°36' W 155°12'3 3.4 060 / 271006.1 5.6 4.7 5.5
2015-Mar-23 04:00N 55°36' W 155°18'1212.0 060 / 271006.5 5.8 5.4
2015-Mar-23 03:01N 55°42' W 155°36'0 0.0 060 / 261006.4 5.2 4.9
2015-Mar-23 03:00N 55°42' W 155°36'7 6.9 060 / 261006.2 5.1 4.8 4.9
2015-Mar-23 02:01N 55°42' W 155°48'7413.1 070 / 231006.4 5.4 4.9
2015-Mar-23 02:00N 55°48' W 155°54'7 6.9 070 / 241006.2 5.3 5.2 5.0
2015-Mar-23 01:01N 55°48' W 156°06'3202.4 060 / 281006.2 5.1 5.1
2015-Mar-23 01:00N 55°48' W 156°12'0 0.0 060 / 261006.0 5.1 4.7 5.1
2015-Mar-23 00:00N 55°48' W 156°12'1515.0 060 / 301006.4 2.2 1.5 5.1 3.6-5.0
2015-Mar-22 23:01N 55°54' W 156°36'0 0.0 060 / 291006.7 5.0 5.0
2015-Mar-22 23:00N 55°54' W 156°36'6 6.0 060 / 311006.6 4.9 3.4 5.0
2015-Mar-22 22:00N 56°00' W 156°36'2110.6 050 / 241007.6 5.4 3.6 5.1
2015-Mar-22 20:01N 55°54' W 156°00'6360.0 070 / 241008.0 5.5 5.1
2015-Mar-22 20:00N 56°00' W 156°00'3 3.4 060 / 251008.0 5.5 3.3 5.1
2015-Mar-22 19:01N 56°00' W 156°06'7412.3 050 / 221008.3 5.0 5.0
2015-Mar-22 19:00N 56°06' W 156°12'1010.2 050 / 221008.4 5.0 3.2 4.9
2015-Mar-22 18:01N 56°06' W 156°30'7401.6 050 / 221008.8 5.0 4.9
2015-Mar-22 18:00N 56°06' W 156°18'7 6.8 040 / 191008.8 5.4 1.0 5.0 2.0-4.9
2015-Mar-22 17:01N 56°06' W 156°30'0 0.0 060 / 221008.7 5.0 5.0
2015-Mar-22 17:00N 56°06' W 156°30'7 6.9 050 / 221008.5 5.0 2.1 5.0
2015-Mar-22 16:00N 56°12' W 156°36'1313.4 060 / 231008.8 4.8 1.9 4.9
2015-Mar-22 15:00N 56°12' W 156°12'7 6.8 060 / 191008.810.8 1.0 5.2 2.1-5.0
2015-Mar-22 14:01N 56°12' W 156°00'3200.3 050 / 191008.5 4.6 4.9
2015-Mar-22 14:00N 56°12' W 156°06'0 0.0 050 / 191008.2 4.6 2.5 5.0
2015-Mar-22 13:00N 56°12' W 156°06'9 9.0 050 / 201008.3 4.4 2.6 5.0
2015-Mar-22 12:00N 56°18' W 155°54'1211.6 060 / 191008.7 4.5 2.4 5.1
2015-Mar-22 11:00N 56°24' W 156°12'1010.0 060 / 171008.8 4.5 1.2 4.9
2015-Mar-22 10:00N 56°24' W 156°30'3 3.3 080 / 161009.0 4.7 1.0 5.0
2015-Mar-22 09:00N 56°24' W 156°36'6 6.0 090 / 151009.3 4.7 1.4 5.0
2015-Mar-22 08:00N 56°30' W 156°36'3010.1 080 / 141009.1 4.8 1.9 5.0
2015-Mar-22 05:00N 56°24' W 155°42'0 0.0 100 / 141008.0 4.9 1.8 5.1
2015-Mar-22 04:00N 56°24' W 155°42'3 3.3 090 / 141007.8 4.8 2.2 5.0
2015-Mar-22 03:00N 56°24' W 155°48'7 6.6 090 / 111007.1 5.4 2.9 5.1
2015-Mar-22 02:00N 56°24' W 155°36'9 8.9 090 / 131006.9 5.3 3.1 5.1
2015-Mar-22 01:00N 56°30' W 155°48'1211.6 090 / 121006.7 4.8 2.8 5.0
2015-Mar-22 00:00N 56°36' W 156°06'1414.5 090 / 91006.2 5.4 0.5 4.8 2.5-4.9
2015-Mar-21 23:00N 56°42' W 156°30'26 8.8 090 / 101006.1 4.9 2.6 5.0
2015-Mar-21 20:00N 56°42' W 155°42'3 3.3 080 / 61005.3 4.7 2.7 5.0
2015-Mar-21 19:00N 56°42' W 155°48'6360.0 100 / 81004.8 4.7 2.1 4.9
2015-Mar-21 18:59N 56°36' W 155°48'0 0.0 120 / 91005.0 4.6 4.9
2015-Mar-21 18:00N 56°36' W 155°48'3198.2 120 / 101003.9 4.2 2.5 4.9
2015-Mar-21 17:59N 56°36' W 155°42'7 7.0 120 / 91004.3 4.4 4.9
2015-Mar-21 17:00N 56°42' W 155°48'7410.8 090 / 81003.4 4.3 2.5 4.9
2015-Mar-21 16:59N 56°36' W 155°42'3 3.4 110 / 91003.7 4.3 4.9
2015-Mar-21 16:00N 56°36' W 155°48'0 0.0 120 / 101002.8 4.2 2.5 4.9
2015-Mar-21 15:59N 56°36' W 155°48'1010.1 110 / 91003.1 4.2 4.9
2015-Mar-21 15:00N 56°36' W 155°30'9 8.9 140 / 61002.5 3.0 1.7 4.8
2015-Mar-21 14:00N 56°42' W 155°18'9 8.9 100 / 111001.9 3.9 2.6 4.7
2015-Mar-21 13:00N 56°48' W 155°30'0 0.0 120 / 101001.4 4.2 2.5 4.8
2015-Mar-21 12:00N 56°48' W 155°30'3 3.3 120 / 121001.2 3.8 2.2 4.9
2015-Mar-21 11:00N 56°48' W 155°36'10 9.9 150 / 121000.5 4.2 2.1 5.1
2015-Mar-21 10:00N 56°48' W 155°54'1211.5 150 / 101000.3 4.4 0.9 4.6
2015-Mar-21 09:00N 56°54' W 156°12'7410.3 130 / 81000.3 4.3 1.6 4.8
2015-Mar-21 08:59N 56°48' W 156°06'1413.9 100 / 81000.5 4.4 4.8
2015-Mar-21 08:00N 57°00' W 156°18'17 8.7 110 / 81000.2 4.6 0.9 4.5
2015-Mar-21 06:00N 56°54' W 155°48'3196.6 150 / 10999.5 4.7 0.4 5.0
2015-Mar-21 05:59N 56°54' W 155°42'9 9.0 150 / 10999.7 4.7 5.0
2015-Mar-21 05:00N 57°00' W 155°54'7 6.5 140 / 12998.9 4.8 0.2 5.0
2015-Mar-21 04:00N 57°00' W 156°06'1414.4 150 / 8998.4 5.0 0.7 5.1
2015-Mar-21 03:00N 56°54' W 155°42'10 9.8 150 / 10998.2 5.0 1.8 5.3
2015-Mar-21 02:00N 56°54' W 155°24'1414.4 140 / 10998.2 4.8 2.2 4.8
2015-Mar-21 01:00N 56°48' W 155°00'7 6.8 110 / 11997.9 4.4 3.0 5.2
2015-Mar-21 00:00N 56°54' W 155°06'1414.4 140 / 13997.4 5.4 2.0 4.5 3.3-5.0
2015-Mar-20 23:00N 57°00' W 155°30'1313.1 120 / 17996.7 4.3 3.4 5.2
2015-Mar-20 22:00N 57°00' W 155°54'9 8.9 100 / 26996.3 5.3 3.5 5.1
2015-Mar-20 21:00N 57°06' W 156°06'1212.4 080 / 23996.2 4.4 3.0 4.8
2015-Mar-20 20:00N 57°18' W 156°00'1111.4 080 / 24996.3 5.2 3.4 5.0
2015-Mar-20 19:00N 57°12' W 155°42'1414.3 070 / 28996.1 5.1 3.2 5.0
2015-Mar-20 18:00N 57°06' W 155°18'3 3.3 080 / 15996.0 4.9 2.8 4.9
2015-Mar-20 17:00N 57°06' W 155°12'6 6.0 080 / 11995.4 5.0 3.0 5.0
2015-Mar-20 16:00N 57°00' W 155°12'11 5.8 070 / 20995.2 5.1 2.9 4.9
2015-Mar-20 14:01N 57°06' W 154°54'7409.6 030 / 18995.2 5.2 4.8
2015-Mar-20 14:00N 57°12' W 155°00'7 6.5 030 / 21994.8 5.2 2.6 4.8
2015-Mar-20 13:00N 57°12' W 155°12'7 6.5 040 / 35995.1 4.9 3.4 4.9
2015-Mar-20 12:00N 57°12' W 155°24'1111.4 040 / 34996.1 4.6 2.7 5.0
2015-Mar-20 11:00N 57°18' W 155°42'7 6.8 040 / 37997.0 4.3 1.7 4.6
2015-Mar-20 10:00N 57°24' W 155°36'3 3.2 050 / 34998.2 4.8 2.3 4.7
2015-Mar-20 09:00N 57°24' W 155°30'0 0.0 050 / 34999.1 4.6 2.3 4.5
2015-Mar-20 08:00N 57°24' W 155°30'3 3.2 060 / 291000.4 4.5 2.0 4.6
2015-Mar-20 07:00N 57°24' W 155°36'3 3.2 050 / 231001.1 5.0 2.3 4.4
2015-Mar-20 06:00N 57°24' W 155°30'17 8.6 050 / 261000.8 4.2 3.0 4.5
2015-Mar-20 04:00N 57°18' W 155°00'0 0.0 040 / 211000.7 4.9 3.7 4.8
2015-Mar-20 03:01N 57°18' W 155°00'3194.5 040 / 241000.7 5.1 4.9
2015-Mar-20 03:00N 57°18' W 155°06'11 5.7 040 / 221000.5 5.0 3.2 4.9
2015-Mar-20 01:00N 57°24' W 154°48'3 3.2 030 / 141001.3 5.6 5.0
2015-Mar-20 00:00N 57°24' W 154°54'1111.4 040 / 241001.8 5.4 1.0 4.2 3.5-4.9
2015-Mar-19 23:00N 57°30' W 155°12'0 0.0 050 / 111002.4 4.4 3.5 5.1
2015-Mar-19 22:00N 57°30' W 155°12'10 9.7 030 / 101002.8 3.1 2.7 5.1
2015-Mar-19 21:00N 57°30' W 155°30'1111.4 020 / 101003.3 5.4 0.5 3.8 2.3 3.2
2015-Mar-19 20:00N 57°36' W 155°12'14 4.7 020 / 71003.0 3.5 1.3 4.8
2015-Mar-19 17:00N 57°30' W 154°48'7 6.8 270 / 11002.7 2.7 1.4 4.8
2015-Mar-19 16:00N 57°36' W 154°42'1111.3 150 / 41002.6 2.2 1.8 5.0
2015-Mar-19 15:00N 57°42' W 155°00'7 1.7 050 / 61002.6 2.5 1.8 3.4
2015-Mar-19 11:00N 57°48' W 154°54'   010 / 111002.2 1.4 0.8 2.9

Dump ship's entire track history